Time;durP1;ratioP1;P1;durP2;ratioP2;P2;SDS_P1;SDS_P2;PMS_P1;PMS_P2;Temp;Humidity;BMP_temperature;BMP_pressure;BME280_temperature;BME280_humidity;BME280_pressure;Samples;Min_cycle;Max_cycle;Signal;HPM_P1;HPM_P2
2024/01/11 00:00:38;;;;;;;;;;;;;;;-1.35;57.59;100777.97;5004086;28;19906;-84
2024/01/11 00:03:05;;;;;;;;;;;;;;;-1.37;57.73;100778.97;5002526;28;19978;-83
2024/01/11 00:05:31;;;;;;;;;;;;;;;-1.48;58.11;100779.47;5019325;28;19904;-84
2024/01/11 00:07:56;;;;;;;;;;;;;;;-1.52;57.62;100785.66;5018709;28;19905;-83
2024/01/11 00:10:22;;;;;;;;;;;;;;;-1.48;58.05;100782.06;5002537;28;19929;-84
2024/01/11 00:12:50;;;;;;;;;;;;;;;-1.43;58.34;100785.25;5018415;28;19922;-84
2024/01/11 00:15:15;;;;;;;;;;;;;;;-1.45;57.79;100786.25;5002151;28;19906;-84
2024/01/11 00:17:42;;;;;;;;;;;;;;;-1.49;58.20;100777.75;5002144;28;19925;-83
2024/01/11 00:20:08;;;;;;;;;;;;;;;-1.55;58.39;100779.78;5001809;28;19912;-84
2024/01/11 00:22:34;;;;;;;;;;;;;;;-1.56;58.68;100768.59;5002069;28;20400;-84
2024/01/11 00:24:59;;;;;;;;;;;;;;;-1.46;58.50;100759.50;5001599;28;19898;-84
2024/01/11 00:27:25;;;;;;;;;;;;;;;-1.44;58.28;100762.03;5017667;28;19921;-83
2024/01/11 00:29:51;;;;;;;;;;;;;;;-1.43;58.42;100753.34;5006184;28;19918;-82
2024/01/11 00:32:17;;;;;;;;;;;;;;;-1.47;58.24;100749.22;5007793;28;19904;-83
2024/01/11 00:34:44;;;;;;;;;;;;;;;-1.50;57.89;100749.31;5018967;28;19905;-84
2024/01/11 00:37:10;;;;;;;;;;;;;;;-1.47;57.80;100742.28;5019030;28;19936;-83
2024/01/11 00:39:35;;;;;;;;;;;;;;;-1.45;58.45;100740.47;5018723;28;19970;-84
2024/01/11 00:42:02;;;;;;;;;;;;;;;-1.39;58.19;100741.94;5019115;28;19929;-84
2024/01/11 00:44:32;;;;;;;;;;;;;;;-1.40;58.18;100730.72;4986312;28;19941;-84
2024/01/11 00:47:00;;;;;;;;;;;;;;;-1.41;58.23;100730.78;5018797;28;19921;-84
2024/01/11 00:49:28;;;;;;;;;;;;;;;-1.37;58.20;100728.00;5001219;28;19917;-84
2024/01/11 00:51:54;;;;;;;;;;;;;;;-1.40;57.74;100735.06;5018763;28;19928;-84
2024/01/11 00:54:24;;;;;;;;;;;;;;;-1.36;58.15;100734.00;5018629;28;19906;-84
2024/01/11 00:56:52;;;;;;;;;;;;;;;-1.40;58.08;100738.50;5001473;28;19929;-84
2024/01/11 00:59:25;;;;;;;;;;;;;;;-1.37;57.87;100729.75;5001150;28;19897;-84
2024/01/11 01:01:51;;;;;;;;;;;;;;;-1.40;58.27;100742.84;5018854;28;19906;-84
2024/01/11 01:04:16;;;;;;;;;;;;;;;-1.42;57.78;100740.31;5001647;28;19953;-84
2024/01/11 01:06:43;;;;;;;;;;;;;;;-1.47;57.88;100728.50;5018209;28;19929;-84
2024/01/11 01:09:09;;;;;;;;;;;;;;;-1.50;58.08;100734.63;5017997;28;19925;-84
2024/01/11 01:11:37;;;;;;;;;;;;;;;-1.58;58.62;100723.78;5018445;28;19952;-84
2024/01/11 01:14:09;;;;;;;;;;;;;;;-1.62;58.05;100720.50;5000959;28;19945;-84
2024/01/11 01:16:35;;;;;;;;;;;;;;;-1.67;58.34;100719.88;5018250;28;19929;-84
2024/01/11 01:19:02;;;;;;;;;;;;;;;-1.69;58.39;100710.50;5018650;28;19922;-84
2024/01/11 01:21:30;;;;;;;;;;;;;;;-1.72;58.09;100708.06;5002266;28;19918;-84
2024/01/11 01:23:56;;;;;;;;;;;;;;;-1.69;58.86;100695.81;5018201;28;19930;-84
2024/01/11 01:26:24;;;;;;;;;;;;;;;-1.65;58.20;100692.16;5017889;28;19914;-84
2024/01/11 01:28:50;;;;;;;;;;;;;;;-1.65;58.75;100696.50;5018033;28;19922;-84
2024/01/11 01:31:15;;;;;;;;;;;;;;;-1.74;58.14;100689.19;5018464;28;19913;-84
2024/01/11 01:33:41;;;;;;;;;;;;;;;-1.79;57.95;100683.38;5000981;28;19964;-84
2024/01/11 01:36:13;;;;;;;;;;;;;;;-1.76;58.18;100681.47;5018250;28;19957;-84
2024/01/11 01:38:39;;;;;;;;;;;;;;;-1.71;58.35;100681.25;5017976;28;19902;-84
2024/01/11 01:41:05;;;;;;;;;;;;;;;-1.65;57.76;100674.06;5000910;28;19915;-84
2024/01/11 01:43:33;;;;;;;;;;;;;;;-1.67;58.25;100667.25;5017525;28;19905;-84
2024/01/11 01:45:59;;;;;;;;;;;;;;;-1.70;57.55;100670.00;5000991;28;19920;-84
2024/01/11 01:48:27;;;;;;;;;;;;;;;-1.75;58.80;100666.78;5018037;28;19906;-84
2024/01/11 01:50:54;;;;;;;;;;;;;;;-1.74;58.10;100661.53;5001178;28;19962;-84
2024/01/11 01:53:21;;;;;;;;;;;;;;;-1.73;57.31;100662.38;5005285;28;19952;-84
2024/01/11 01:55:48;;;;;;;;;;;;;;;-1.72;57.79;100654.53;5005449;28;19929;-84
2024/01/11 01:58:15;;;;;;;;;;;;;;;-1.71;57.73;100656.22;5005105;28;19913;-84
2024/01/11 02:00:46;;;;;;;;;;;;;;;-1.67;57.68;100655.16;5003921;28;19980;-84
2024/01/11 02:03:29;;;;;;;;;;;;;;;-1.70;57.97;100654.47;5016165;28;19913;-83
2024/01/11 02:05:56;;;;;;;;;;;;;;;-1.67;57.90;100646.56;5022183;28;19977;-84
2024/01/11 02:08:22;;;;;;;;;;;;;;;-1.71;57.80;100642.44;5021651;28;19918;-84
2024/01/11 02:10:48;;;;;;;;;;;;;;;-1.82;58.11;100635.19;5004953;28;19910;-84
2024/01/11 02:13:14;;;;;;;;;;;;;;;-1.90;58.10;100639.88;4988586;28;19948;-84
2024/01/11 02:15:41;;;;;;;;;;;;;;;-1.99;58.34;100625.63;5004437;28;19905;-84
2024/01/11 02:18:07;;;;;;;;;;;;;;;-1.99;58.27;100625.63;5021559;28;19898;-84
2024/01/11 02:20:35;;;;;;;;;;;;;;;-1.96;58.66;100616.88;5004369;28;19897;-84
2024/01/11 02:23:17;;;;;;;;;;;;;;;-1.84;58.18;100616.28;5020049;28;20113;-84
2024/01/11 02:25:43;;;;;;;;;;;;;;;-1.80;57.74;100610.06;5004003;28;19925;-84
2024/01/11 02:28:08;;;;;;;;;;;;;;;-1.77;57.60;100612.50;5019247;28;19902;-84
2024/01/11 02:30:35;;;;;;;;;;;;;;;-1.82;57.30;100611.88;5016643;28;20398;-83
2024/01/11 02:33:02;;;;;;;;;;;;;;;-1.79;58.28;100610.91;5020558;28;19929;-84
2024/01/11 02:35:28;;;;;;;;;;;;;;;-1.81;57.27;100608.38;5020825;28;19914;-84
2024/01/11 02:37:54;;;;;;;;;;;;;;;-1.83;57.29;100606.78;5003863;28;19920;-84
2024/01/11 02:40:23;;;;;;;;;;;;;;;-1.85;57.94;100609.44;5020671;28;19914;-83
2024/01/11 02:42:49;;;;;;;;;;;;;;;-1.94;57.86;100612.47;5020696;28;19926;-83
2024/01/11 02:45:14;;;;;;;;;;;;;;;-2.02;58.35;100609.41;5020680;28;19930;-83
2024/01/11 02:47:43;;;;;;;;;;;;;;;-2.03;58.36;100613.75;5020439;28;19906;-84
2024/01/11 02:50:11;;;;;;;;;;;;;;;-1.97;58.73;100617.78;5021154;28;19925;-84
2024/01/11 02:52:38;;;;;;;;;;;;;;;-1.96;58.13;100617.72;5004093;28;19905;-84
2024/01/11 02:55:04;;;;;;;;;;;;;;;-1.97;57.99;100613.44;4987992;28;19949;-84
2024/01/11 02:57:32;;;;;;;;;;;;;;;-2.06;58.08;100611.28;5020252;28;19918;-83
2024/01/11 02:59:57;;;;;;;;;;;;;;;-2.11;58.25;100615.00;4987060;28;19990;-84
2024/01/11 03:02:25;;;;;;;;;;;;;;;-2.18;58.13;100616.22;5020239;28;19914;-84
2024/01/11 03:04:51;;;;;;;;;;;;;;;-2.19;57.78;100617.13;5003347;28;19914;-83
2024/01/11 03:07:17;;;;;;;;;;;;;;;-2.11;58.56;100621.03;4994808;28;19914;-82
2024/01/11 03:09:44;;;;;;;;;;;;;;;-2.06;58.27;100619.06;4993358;28;19997;-83
2024/01/11 03:12:10;;;;;;;;;;;;;;;-2.05;57.80;100617.31;5016906;28;19926;-83
2024/01/11 03:14:36;;;;;;;;;;;;;;;-2.03;58.24;100623.25;5003121;28;19918;-84
2024/01/11 03:17:04;;;;;;;;;;;;;;;-2.01;58.44;100618.84;5018720;28;19921;-83
2024/01/11 03:19:31;;;;;;;;;;;;;;;-2.01;57.82;100624.84;5020216;28;19906;-83
2024/01/11 03:21:56;;;;;;;;;;;;;;;-2.01;58.55;100616.25;5002616;28;19931;-83
2024/01/11 03:24:24;;;;;;;;;;;;;;;-2.01;57.59;100614.50;5019917;28;19936;-84
2024/01/11 03:26:52;;;;;;;;;;;;;;;-2.00;58.50;100612.75;5019973;28;19925;-83
2024/01/11 03:29:22;;;;;;;;;;;;;;;-2.05;58.50;100612.97;5019034;28;19925;-83
2024/01/11 03:31:48;;;;;;;;;;;;;;;-2.08;58.76;100622.63;5019769;28;19913;-83
2024/01/11 03:34:15;;;;;;;;;;;;;;;-2.04;58.22;100611.22;4986517;28;19929;-84
2024/01/11 03:36:42;;;;;;;;;;;;;;;-2.02;57.97;100609.41;5002790;28;19922;-83
2024/01/11 03:39:08;;;;;;;;;;;;;;;-1.94;58.30;100612.47;5002713;28;19969;-83
2024/01/11 03:41:35;;;;;;;;;;;;;;;-1.89;58.08;100609.66;5002624;28;19929;-83
2024/01/11 03:44:00;;;;;;;;;;;;;;;-1.95;57.82;100608.19;5003025;28;19913;-83
2024/01/11 03:46:26;;;;;;;;;;;;;;;-1.99;58.65;100602.34;5002640;28;19909;-83
2024/01/11 03:48:52;;;;;;;;;;;;;;;-1.96;58.48;100599.59;5019169;28;19918;-83
2024/01/11 03:51:18;;;;;;;;;;;;;;;-1.98;58.52;100601.44;5002156;28;19982;-84
2024/01/11 03:53:45;;;;;;;;;;;;;;;-2.01;58.05;100601.56;4986584;28;19961;-84
2024/01/11 03:56:10;;;;;;;;;;;;;;;-2.04;57.98;100596.53;5002431;28;19921;-83
2024/01/11 03:58:40;;;;;;;;;;;;;;;-2.02;58.02;100601.66;5001156;28;19918;-83
2024/01/11 04:01:09;;;;;;;;;;;;;;;-2.08;57.83;100595.00;5001520;28;19905;-83
2024/01/11 04:03:35;;;;;;;;;;;;;;;-2.10;58.48;100585.63;4985888;28;19902;-82
2024/01/11 04:06:03;;;;;;;;;;;;;;;-2.06;58.70;100592.34;4997958;28;19905;-82
2024/01/11 04:08:29;;;;;;;;;;;;;;;-2.03;58.20;100587.88;5018822;28;19957;-84
2024/01/11 04:10:55;;;;;;;;;;;;;;;-2.07;58.44;100583.75;5002126;28;19921;-83
2024/01/11 04:13:24;;;;;;;;;;;;;;;-2.04;58.00;100581.00;5002501;28;19909;-83
2024/01/11 04:15:51;;;;;;;;;;;;;;;-2.06;58.46;100584.59;5000641;28;19940;-84
2024/01/11 04:18:17;;;;;;;;;;;;;;;-2.11;57.79;100589.97;5018828;28;19968;-84
2024/01/11 04:20:43;;;;;;;;;;;;;;;-2.15;58.44;100587.59;5018697;28;19957;-84
2024/01/11 04:23:10;;;;;;;;;;;;;;;-2.14;58.09;100584.94;4962586;28;19930;-84
2024/01/11 04:25:36;;;;;;;;;;;;;;;-2.11;57.83;100583.97;4978835;29;19945;-84
2024/01/11 04:28:02;;;;;;;;;;;;;;;-2.09;57.51;100580.41;4978604;29;21911;-84
2024/01/11 04:30:27;;;;;;;;;;;;;;;-2.11;58.38;100587.38;4962274;29;19899;-84
2024/01/11 04:32:54;;;;;;;;;;;;;;;-2.13;58.18;100583.19;4978814;28;19926;-84
2024/01/11 04:35:20;;;;;;;;;;;;;;;-2.16;57.84;100586.78;4978841;28;19981;-84
2024/01/11 04:37:45;;;;;;;;;;;;;;;-2.18;58.25;100583.41;4978187;29;19905;-84
2024/01/11 04:40:11;;;;;;;;;;;;;;;-2.17;57.75;100585.09;4977857;29;19954;-84
2024/01/11 04:42:42;;;;;;;;;;;;;;;-2.17;57.59;100585.09;4978699;28;19923;-84
2024/01/11 04:45:08;;;;;;;;;;;;;;;-2.19;58.15;100589.50;4977435;28;19927;-84
2024/01/11 04:47:33;;;;;;;;;;;;;;;-2.26;57.88;100591.50;4977843;29;19926;-84
2024/01/11 04:49:59;;;;;;;;;;;;;;;-2.32;58.54;100591.78;4978123;29;19978;-84
2024/01/11 04:52:25;;;;;;;;;;;;;;;-2.36;57.85;100587.66;4977443;29;19914;-84
2024/01/11 04:54:51;;;;;;;;;;;;;;;-2.35;57.71;100598.84;4961470;28;19958;-83
2024/01/11 04:57:17;;;;;;;;;;;;;;;-2.37;58.29;100588.56;4961934;29;19930;-84
2024/01/11 04:59:44;;;;;;;;;;;;;;;-2.40;57.89;100585.28;4969256;28;19918;-84
2024/01/11 05:02:13;;;;;;;;;;;;;;;-2.43;58.58;100585.44;5018188;28;19898;-84
2024/01/11 05:04:38;;;;;;;;;;;;;;;-2.49;58.26;100585.72;5017722;28;19953;-84
2024/01/11 05:07:04;;;;;;;;;;;;;;;-2.57;57.84;100586.06;5015465;28;19921;-83
2024/01/11 05:09:30;;;;;;;;;;;;;;;-2.59;57.94;100588.72;5005224;28;19922;-83
2024/01/11 05:11:56;;;;;;;;;;;;;;;-2.64;58.32;100580.31;5013832;28;19905;-84
2024/01/11 05:14:22;;;;;;;;;;;;;;;-2.65;58.68;100583.81;4982674;28;19918;-84
2024/01/11 05:16:50;;;;;;;;;;;;;;;-2.57;58.11;100576.56;5016612;28;19956;-83
2024/01/11 05:19:15;;;;;;;;;;;;;;;-2.64;58.57;100571.75;5017020;28;19913;-83
2024/01/11 05:21:41;;;;;;;;;;;;;;;-2.73;58.73;100570.41;5017509;28;19898;-83
2024/01/11 05:24:07;;;;;;;;;;;;;;;-2.73;58.11;100566.97;5000454;28;19922;-83
2024/01/11 05:26:32;;;;;;;;;;;;;;;-2.71;58.33;100570.34;4999815;28;19921;-83
2024/01/11 05:29:00;;;;;;;;;;;;;;;-2.64;58.33;100574.31;5000152;28;19925;-83
2024/01/11 05:31:25;;;;;;;;;;;;;;;-2.60;57.73;100566.34;5000068;28;20012;-83
2024/01/11 05:33:51;;;;;;;;;;;;;;;-2.56;58.03;100567.06;5017494;28;19905;-83
2024/01/11 05:36:16;;;;;;;;;;;;;;;-2.58;57.75;100564.53;5017448;28;19905;-83
2024/01/11 05:38:42;;;;;;;;;;;;;;;-2.57;58.21;100558.47;5000498;28;19938;-83
2024/01/11 05:41:08;;;;;;;;;;;;;;;-2.65;58.16;100562.31;5000418;28;19965;-83
2024/01/11 05:43:36;;;;;;;;;;;;;;;-2.70;58.27;100556.50;5017435;28;19900;-84
2024/01/11 05:46:02;;;;;;;;;;;;;;;-2.83;58.45;100550.22;5017020;28;19918;-83
2024/01/11 05:48:27;;;;;;;;;;;;;;;-2.82;58.21;100544.13;4999545;28;19925;-83
2024/01/11 05:50:53;;;;;;;;;;;;;;;-2.81;58.17;100545.81;5000255;28;19925;-83
2024/01/11 05:53:20;;;;;;;;;;;;;;;-2.77;58.29;100545.59;5016427;28;19914;-83
2024/01/11 05:55:46;;;;;;;;;;;;;;;-2.78;58.32;100556.00;5000047;28;19913;-83
2024/01/11 05:58:12;;;;;;;;;;;;;;;-2.75;58.44;100545.53;4999760;28;19968;-83
2024/01/11 06:00:37;;;;;;;;;;;;;;;-2.78;58.20;100548.25;5000429;28;19906;-83
2024/01/11 06:03:05;;;;;;;;;;;;;;;-2.79;58.28;100539.66;5017150;28;19914;-83
2024/01/11 06:05:31;;;;;;;;;;;;;;;-2.80;58.54;100545.75;5017195;28;19898;-83
2024/01/11 06:07:57;;;;;;;;;;;;;;;-2.87;58.51;100536.59;5016929;28;19916;-84
2024/01/11 06:10:25;;;;;;;;;;;;;;;-2.83;58.61;100532.13;5000190;28;19922;-84
2024/01/11 06:12:53;;;;;;;;;;;;;;;-2.88;58.56;100534.91;4999895;28;19921;-83
2024/01/11 06:15:19;;;;;;;;;;;;;;;-2.92;58.69;100534.22;5017683;28;19961;-83
2024/01/11 06:17:49;;;;;;;;;;;;;;;-2.84;58.70;100531.28;5016510;28;20009;-84
2024/01/11 06:20:17;;;;;;;;;;;;;;;-2.79;58.97;100536.25;5009461;28;19968;-84
2024/01/11 06:22:44;;;;;;;;;;;;;;;-2.74;58.32;100539.47;4980856;28;19914;-84
2024/01/11 06:25:13;;;;;;;;;;;;;;;-2.69;58.05;100535.75;4980911;28;19898;-84
2024/01/11 06:27:39;;;;;;;;;;;;;;;-2.64;58.24;100538.97;4997010;28;19922;-84
2024/01/11 06:30:16;;;;;;;;;;;;;;;-2.53;58.19;100545.41;4981002;28;19918;-83
2024/01/11 06:32:43;;;;;;;;;;;;;;;-2.53;58.11;100535.06;4996877;28;19905;-84
2024/01/11 06:35:09;;;;;;;;;;;;;;;-2.57;58.20;100542.13;4979206;28;19914;-83
2024/01/11 06:37:34;;;;;;;;;;;;;;;-2.59;58.27;100544.75;5014711;28;19913;-83
2024/01/11 06:40:00;;;;;;;;;;;;;;;-2.59;58.32;100537.00;5002806;28;19933;-83
2024/01/11 06:42:27;;;;;;;;;;;;;;;-2.54;57.90;100536.81;5019395;28;19914;-83
2024/01/11 06:44:53;;;;;;;;;;;;;;;-2.47;57.81;100535.59;5019521;28;19977;-82
2024/01/11 06:47:19;;;;;;;;;;;;;;;-2.46;58.83;100526.09;5001075;28;19914;-83
2024/01/11 06:49:45;;;;;;;;;;;;;;;-2.39;58.86;100528.31;5001929;28;19918;-83
2024/01/11 06:52:10;;;;;;;;;;;;;;;-2.31;58.19;100533.97;5019849;28;19914;-84
2024/01/11 06:54:36;;;;;;;;;;;;;;;-2.26;58.48;100531.16;5019854;28;19946;-84
2024/01/11 06:57:05;;;;;;;;;;;;;;;-2.19;58.71;100530.00;5019846;28;19918;-84
2024/01/11 06:59:34;;;;;;;;;;;;;;;-2.12;58.77;100533.97;5019985;28;19910;-84
2024/01/11 07:02:02;;;;;;;;;;;;;;;-2.08;58.32;100532.91;5009314;28;19918;-83
2024/01/11 07:04:29;;;;;;;;;;;;;;;-2.04;58.68;100529.25;5002811;28;19925;-84
2024/01/11 07:06:56;;;;;;;;;;;;;;;-2.00;58.18;100525.63;5011057;28;20041;-84
2024/01/11 07:09:21;;;;;;;;;;;;;;;-1.92;58.29;100527.81;4984738;28;19926;-83
2024/01/11 07:11:47;;;;;;;;;;;;;;;-1.89;58.12;100532.03;4981781;28;20303;-83
2024/01/11 07:14:13;;;;;;;;;;;;;;;-1.82;58.27;100535.97;5003162;28;19914;-84
2024/01/11 07:16:39;;;;;;;;;;;;;;;-1.77;57.33;100531.41;5021191;28;19973;-85
2024/01/11 07:19:06;;;;;;;;;;;;;;;-1.71;57.54;100531.94;5020264;28;19905;-84
2024/01/11 07:21:31;;;;;;;;;;;;;;;-1.65;57.85;100529.06;4986348;28;20008;-84
2024/01/11 07:24:00;;;;;;;;;;;;;;;-1.57;58.12;100518.31;5002717;28;19957;-84
2024/01/11 07:26:34;;;;;;;;;;;;;;;-1.50;58.13;100522.25;5003197;28;19929;-83
2024/01/11 07:29:00;;;;;;;;;;;;;;;-1.47;57.90;100519.56;4985828;28;19902;-82
2024/01/11 07:31:26;;;;;;;;;;;;;;;-1.41;57.71;100516.66;5003159;28;19929;-84
2024/01/11 07:33:53;;;;;;;;;;;;;;;-1.35;57.55;100516.34;5013748;28;19953;-84
2024/01/11 07:36:19;;;;;;;;;;;;;;;-1.28;58.12;100511.69;5020091;28;19926;-83
2024/01/11 07:38:45;;;;;;;;;;;;;;;-1.22;57.94;100506.16;4986727;28;19918;-84
2024/01/11 07:41:11;;;;;;;;;;;;;;;-1.17;57.98;100509.34;5002626;28;19986;-83
2024/01/11 07:43:37;;;;;;;;;;;;;;;-1.05;57.34;100505.28;5003216;28;19906;-83
2024/01/11 07:46:05;;;;;;;;;;;;;;;-0.99;57.50;100497.19;5020219;28;19941;-84
2024/01/11 07:48:32;;;;;;;;;;;;;;;-0.93;57.37;100493.44;4986864;28;19932;-84
2024/01/11 07:51:02;;;;;;;;;;;;;;;-0.86;57.94;100495.63;5019486;28;19960;-83
2024/01/11 07:53:29;;;;;;;;;;;;;;;-0.84;57.68;100491.19;5020024;28;19918;-83
2024/01/11 07:55:55;;;;;;;;;;;;;;;-0.84;58.67;100480.81;5003078;28;19941;-84
2024/01/11 07:58:20;;;;;;;;;;;;;;;-0.77;58.30;100484.75;5001785;28;19898;-83
2024/01/11 08:00:47;;;;;;;;;;;;;;;-0.68;58.69;100475.66;5003163;28;19906;-83
2024/01/11 08:03:13;;;;;;;;;;;;;;;-0.58;57.77;100476.00;5020087;28;19937;-83
2024/01/11 08:05:50;;;;;;;;;;;;;;;-0.49;58.24;100476.31;5020234;28;19913;-83
2024/01/11 08:08:17;;;;;;;;;;;;;;;-0.40;58.21;100475.81;5020209;28;19991;-84
2024/01/11 08:10:49;;;;;;;;;;;;;;;-0.35;58.17;100470.38;5019680;28;19921;-83
2024/01/11 08:13:31;;;;;;;;;;;;;;;;;;;;;
2024/01/11 08:16:09;;;;;;;;;;;;;;;-0.24;58.24;100468.00;5324898;23;19988;-83
2024/01/11 08:18:41;;;;;;;;;;;;;;;-0.15;58.27;100471.81;5044372;28;19932;-84
2024/01/11 08:21:11;;;;;;;;;;;;;;;-0.10;58.46;100473.25;5058760;28;19929;-83
2024/01/11 08:23:48;;;;;;;;;;;;;;;-0.02;57.71;100475.41;5025526;28;19931;-82
2024/01/11 08:26:25;;;;;;;;;;;;;;;-0.06;58.60;100459.16;5022844;28;19932;-83
2024/01/11 08:28:54;;;;;;;;;;;;;;;0.05;58.31;100468.97;5039266;28;19913;-81
2024/01/11 08:31:30;;;;;;;;;;;;;;;0.13;58.26;100460.72;5023982;28;19917;-83
2024/01/11 08:33:57;;;;;;;;;;;;;;;0.19;58.12;100465.56;5035720;28;19952;-83
2024/01/11 08:36:31;;;;;;;;;;;;;;;0.23;57.69;100461.84;5033713;28;19961;-82
2024/01/11 08:38:59;;;;;;;;;;;;;;;0.29;57.93;100449.34;5009582;28;19997;-83
2024/01/11 08:41:27;;;;;;;;;;;;;;;0.36;57.71;100451.56;4985578;28;19905;-83
2024/01/11 08:59:53;;;;;;;;;;;;;;;0.79;56.99;100422.09;5743091;23;19922;-82
2024/01/11 09:02:42;;;;;;;;;;;;;;;0.82;57.14;100416.72;5130383;23;19924;-81
2024/01/11 09:07:49;;;;;;;;;;;;;;;0.90;57.17;100405.84;5563929;22;19910;-83
2024/01/11 09:18:13;;;;;;;;;;;;;;;1.10;56.66;100392.41;5514900;22;19925;-83
2024/01/11 09:23:21;;;;;;;;;;;;;;;1.12;56.60;100377.56;5372866;23;19926;-83
2024/01/11 09:25:52;;;;;;;;;;;;;;;1.19;56.50;100370.19;4975978;28;19906;-83
2024/01/11 09:43:54;;;;;;;;;;;;;;;1.60;56.38;100344.13;5840311;22;19937;-81
2024/01/11 09:54:12;;;;;;;;;;;;;;;1.92;56.35;100308.09;5708926;22;19926;-83
2024/01/11 09:56:51;;;;;;;;;;;;;;;1.99;56.59;100298.94;4999036;28;19953;-82
2024/01/11 10:10:28;;;;;;;;;;;;;;;-0.36;56.18;99878.00;6109859;23;19920;-82
2024/01/11 10:13:10;;;;;;;;;;;;;;;2.50;56.26;100276.28;5653101;22;20006;-86
2024/01/11 10:33:17;;;;;;;;;;;;;;;3.09;56.03;100247.66;5192338;22;19933;-86
2024/01/11 10:57:18;;;;;;;;;;;;;;;3.25;50.31;100199.56;5307823;22;19933;-86
2024/01/11 11:18:02;;;;;;;;;;;;;;;3.42;51.81;100162.56;5002462;28;19917;-83
2024/01/11 11:23:47;;;;;;;;;;;;;;;3.47;51.83;100161.28;5050207;23;19929;-84
2024/01/11 11:29:28;;;;;;;;;;;;;;;3.52;50.84;100147.88;5147601;22;19934;-84
2024/01/11 11:43:28;;;;;;;;;;;;;;;3.54;50.77;100125.09;5054824;23;19910;-85
2024/01/11 11:49:50;;;;;;;;;;;;;;;3.60;50.90;100108.94;5121551;23;19910;-86
2024/01/11 11:52:49;;;;;;;;;;;;;;;3.62;50.43;100101.81;5000915;28;19910;-84
2024/01/11 11:58:32;;;;;;;;;;;;;;;3.69;50.69;100083.88;5269101;23;19932;-83
2024/01/11 12:01:40;;;;;;;;;;;;;;;3.77;50.72;100084.97;4994988;28;19913;-84
2024/01/11 12:04:28;;;;;;;;;;;;;;;3.77;49.58;100077.13;4992553;28;19933;-85
2024/01/11 12:07:17;;;;;;;;;;;;;;;3.82;51.38;100069.78;4949492;28;19937;-85
2024/01/11 12:19:01;;;;;;;;;;;;;;;3.93;48.14;100047.19;5020917;28;19916;-84
2024/01/11 12:30:49;;;;;;;;;;;;;;;3.96;49.92;100041.72;5317482;23;19933;-83
2024/01/11 12:48:44;;;;;;;;;;;;;;;3.96;48.15;99995.50;5171404;23;19933;-83
2024/01/11 12:51:34;;;;;;;;;;;;;;;3.99;49.54;99994.44;4961202;29;19907;-86
2024/01/11 13:03:08;;;;;;;;;;;;;;;4.05;48.11;99979.09;4980522;28;19913;-84
2024/01/11 13:11:56;;;;;;;;;;;;;;;4.10;47.37;99976.94;5158849;23;19916;-86
2024/01/11 13:17:24;;;;;;;;;;;;;;;4.13;45.22;99957.56;4851814;26;19910;-86
2024/01/11 13:23:26;;;;;;;;;;;;;;;4.13;47.65;99953.16;5019888;28;19929;-84
2024/01/11 13:26:15;;;;;;;;;;;;;;;4.12;44.80;99942.84;4986696;28;19917;-82
2024/01/11 13:34:58;;;;;;;;;;;;;;;4.16;47.95;99946.84;4658256;26;19922;-85
2024/01/11 13:37:34;;;;;;;;;;;;;;;4.14;47.30;99938.31;5002880;28;19969;-85
2024/01/11 13:40:03;;;;;;;;;;;;;;;4.14;47.29;99939.13;5018896;28;19912;-85
2024/01/11 13:42:31;;;;;;;;;;;;;;;4.16;46.04;99933.78;5018451;28;19953;-83
2024/01/11 13:45:20;;;;;;;;;;;;;;;4.18;47.03;99926.63;5000260;28;19913;-83
2024/01/11 13:47:46;;;;;;;;;;;;;;;4.20;47.85;99927.34;5021343;28;19932;-84
2024/01/11 13:50:30;;;;;;;;;;;;;;;4.18;47.34;99923.19;5006421;28;19929;-83
2024/01/11 13:53:16;;;;;;;;;;;;;;;4.17;47.57;99917.16;4990226;28;19910;-84
2024/01/11 14:01:50;;;;;;;;;;;;;;;4.13;47.34;99911.34;5023664;28;19913;-85
2024/01/11 14:04:54;;;;;;;;;;;;;;;4.16;49.39;99949.47;4990270;28;19940;-84
2024/01/11 14:10:31;;;;;;;;;;;;;;;4.10;48.08;99902.94;5023152;28;19913;-84
2024/01/11 14:16:16;;;;;;;;;;;;;;;4.01;48.11;99906.31;5057306;23;19926;-86
2024/01/11 14:28:07;;;;;;;;;;;;;;;3.82;48.21;99884.31;5535831;22;19961;-84
2024/01/11 14:30:58;;;;;;;;;;;;;;;3.78;48.48;99885.53;5022592;28;19906;-83
2024/01/11 14:33:48;;;;;;;;;;;;;;;3.74;48.69;99878.09;5006206;28;19985;-84
2024/01/11 14:42:17;;;;;;;;;;;;;;;3.62;49.31;99860.78;5110826;23;19916;-85
2024/01/11 15:11:43;;;;;;;;;;;;;;;3.24;50.50;99853.47;5099415;23;19925;-82
2024/01/11 15:20:22;;;;;;;;;;;;;;;3.13;50.95;99836.06;5199431;22;19981;-83
2024/01/11 15:23:13;;;;;;;;;;;;;;;3.06;51.11;99833.13;5020262;28;19965;-83
2024/01/11 15:31:19;;;;;;;;;;;;;;;2.92;51.63;99827.31;5052427;23;19910;-82
2024/01/11 15:34:26;;;;;;;;;;;;;;;2.90;52.21;99824.84;5001556;28;19910;-83
2024/01/11 15:37:21;;;;;;;;;;;;;;;2.83;52.11;99829.72;4985229;28;19993;-83
2024/01/11 15:42:26;;;;;;;;;;;;;;;2.70;52.42;99821.19;5340657;23;19916;-83
2024/01/11 15:44:52;;;;;;;;;;;;;;;2.70;52.66;99825.59;4965914;28;19950;-82
2024/01/11 15:47:20;;;;;;;;;;;;;;;2.71;52.57;99827.25;5138611;23;19944;-83
2024/01/11 15:55:50;;;;;;;;;;;;;;;2.69;52.68;99827.38;5247851;23;19909;-82
2024/01/11 15:58:21;;;;;;;;;;;;;;;2.65;53.37;99815.53;5057016;22;19916;-82
2024/01/11 16:00:53;;;;;;;;;;;;;;;2.62;53.47;99812.34;5111618;23;19918;-83
2024/01/11 16:03:23;;;;;;;;;;;;;;;2.59;53.76;99817.78;4984219;28;19993;-82
2024/01/11 16:09:25;;;;;;;;;;;;;;;2.53;53.66;99817.31;5001378;28;19936;-82
2024/01/11 16:12:25;;;;;;;;;;;;;;;2.48;53.88;99814.25;5247973;23;19997;-83
2024/01/11 16:18:25;;;;;;;;;;;;;;;2.47;54.26;99819.56;5038964;23;19925;-82
2024/01/11 16:31:58;;;;;;;;;;;;;;;2.30;55.41;99820.88;4809673;22;19910;-83
2024/01/11 17:00:44;;;;;;;;;;;;;;;1.91;56.92;99790.88;5688731;22;19949;-83
2024/01/11 17:03:14;;;;;;;;;;;;;;;1.91;57.09;99796.09;4987156;28;19909;-83
2024/01/11 17:06:19;;;;;;;;;;;;;;;1.91;57.68;99790.88;5018854;28;19922;-83
2024/01/11 17:08:57;;;;;;;;;;;;;;;1.89;57.04;99790.19;4984653;28;19906;-82
2024/01/11 17:17:06;;;;;;;;;;;;;;;1.78;57.40;99784.97;5755121;22;19910;-84
2024/01/11 17:20:00;;;;;;;;;;;;;;;1.77;58.11;99778.94;4998201;28;19905;-83
2024/01/11 17:22:58;;;;;;;;;;;;;;;1.76;57.38;99781.66;4983189;28;19937;-83
2024/01/11 17:31:17;;;;;;;;;;;;;;;1.69;58.21;99770.88;4910153;26;19918;-83
2024/01/11 17:39:23;;;;;;;;;;;;;;;1.61;58.31;99773.22;5295610;22;19909;-83
2024/01/11 17:49:37;;;;;;;;;;;;;;;1.42;59.02;99770.31;5584354;22;19936;-83
2024/01/11 17:52:04;;;;;;;;;;;;;;;1.38;58.86;99758.47;5000525;28;19953;-83
2024/01/11 17:54:31;;;;;;;;;;;;;;;1.35;59.34;99758.69;4999996;28;19921;-83
2024/01/11 17:56:57;;;;;;;;;;;;;;;1.35;59.09;99758.69;5000010;28;19914;-82
2024/01/11 18:05:07;;;;;;;;;;;;;;;1.37;58.37;99764.63;5885969;22;19926;-83
2024/01/11 18:10:17;;;;;;;;;;;;;;;1.25;59.15;99756.78;6004885;23;20026;-84
2024/01/11 18:12:50;;;;;;;;;;;;;;;1.25;58.62;99756.78;5000185;28;19937;-84
2024/01/11 18:20:31;;;;;;;;;;;;;;;1.18;58.80;99739.16;5382429;22;19949;-82
2024/01/11 18:23:08;;;;;;;;;;;;;;;1.15;59.89;99747.19;4999252;28;19906;-82
2024/01/11 18:25:40;;;;;;;;;;;;;;;1.14;59.01;99743.75;4999299;28;19930;-83
2024/01/11 18:28:52;;;;;;;;;;;;;;;1.10;59.74;99741.50;4959786;29;19910;-82
2024/01/11 18:59:02;;;;;;;;;;;;;;;0.92;60.00;99704.69;5712544;23;19930;-82
2024/01/11 19:04:13;;;;;;;;;;;;;;;0.91;59.85;99713.41;5176374;23;19934;-82
2024/01/11 19:06:40;;;;;;;;;;;;;;;0.85;60.41;99706.06;5003070;28;19934;-82
2024/01/11 19:14:24;;;;;;;;;;;;;;;0.82;59.85;99706.28;5694034;23;19957;-82
2024/01/11 19:16:52;;;;;;;;;;;;;;;0.84;59.65;99702.66;5958458;22;20129;-82
2024/01/11 19:24:38;;;;;;;;;;;;;;;0.85;60.17;99683.50;5665679;22;19926;-82
2024/01/11 19:27:04;;;;;;;;;;;;;;;0.86;59.88;99687.75;5002910;28;19944;-82
2024/01/11 19:29:31;;;;;;;;;;;;;;;0.86;59.66;99694.72;5018380;28;19922;-83
2024/01/11 19:31:56;;;;;;;;;;;;;;;0.82;59.94;99688.09;5002122;28;19918;-83
2024/01/11 19:34:25;;;;;;;;;;;;;;;0.79;59.98;99689.16;5019349;28;19925;-83
2024/01/11 19:36:54;;;;;;;;;;;;;;;0.77;60.59;99688.44;5019648;28;19921;-82
2024/01/11 19:39:25;;;;;;;;;;;;;;;0.74;60.36;99674.81;5020030;28;19921;-83
2024/01/11 19:41:54;;;;;;;;;;;;;;;0.72;60.64;99679.28;5005095;28;19906;-83